Central Virginia Flyers


Central Virginia Flyers is a 10 member flying club based in Richmond, VA at Hanover County Airport (KOFP). We own N787AT, a 1977 Cessna 172 with 180hp conversion. If you are interested in membership, please contact Brenton at [email protected]


Aviation Digital Data Service (ADDS)

Output produced by METARs form (0934 UTC 17 June 2019)
found at http://aviationweather.gov/metar/data/
 
KOFP 170854Z AUTO 22007KT 10SM CLR 25/19 A2995 RMK AO2 SLP140 T02500189 55001
KRIC 170854Z 20005KT 10SM BKN300 22/19 A2995 RMK AO2 SLP143 T02170194 55002 $
KRIC 170520Z 1706/1806 22009KT P6SM FEW160 SCT300 
     FM171500 23007KT P6SM SCT050 
     FM171900 22008KT P6SM BKN050